Time;durP1;ratioP1;P1;durP2;ratioP2;P2;SDS_P1;SDS_P2;PMS_P1;PMS_P2;Temp;Humidity;BMP_temperature;BMP_pressure;BME280_temperature;BME280_humidity;BME280_pressure;Samples;Min_cycle;Max_cycle;Signal;HPM_P1;HPM_P2
2022/01/22 00:00:06;;;;;;;62.65;29.77;;;;;;;;;;5092430;28;20028;-75
2022/01/22 00:02:32;;;;;;;68.28;30.95;;;;;;;;;;5092048;28;20031;-75
2022/01/22 00:04:58;;;;;;;64.70;28.40;;;;;;;;;;5076265;28;20031;-75
2022/01/22 00:07:24;;;;;;;63.60;27.02;;;;;;;;;;5092373;28;20036;-75
2022/01/22 00:09:53;;;;;;;60.25;27.05;;;;;;;;;;5092019;28;20471;-76
2022/01/22 00:15:04;;;;;;;60.28;25.35;;;;;;;;;;5085853;28;20039;-76
2022/01/22 00:17:30;;;;;;;61.50;28.80;;;;;;;;;;5085846;28;20039;-75
2022/01/22 00:19:56;;;;;;;68.63;30.88;;;;;;;;;;5082949;28;20444;-75
2022/01/22 00:22:26;;;;;;;60.05;28.52;;;;;;;;;;5086377;28;20106;-75
2022/01/22 00:25:00;;;;;;;54.30;25.02;;;;;;;;;;5082573;28;20844;-75
2022/01/22 00:27:27;;;;;;;54.35;26.13;;;;;;;;;;5074996;28;20039;-75
2022/01/22 00:29:53;;;;;;;55.22;26.90;;;;;;;;;;5076454;28;20028;-76
2022/01/22 00:32:19;;;;;;;57.30;27.67;;;;;;;;;;5091182;28;20085;-75
2022/01/22 00:34:45;;;;;;;52.80;26.25;;;;;;;;;;5092014;28;20119;-75
2022/01/22 00:37:11;;;;;;;53.72;26.08;;;;;;;;;;5091111;28;20466;-75
2022/01/22 00:39:37;;;;;;;54.35;26.77;;;;;;;;;;5092008;28;20501;-75
2022/01/22 00:42:10;;;;;;;58.75;28.70;;;;;;;;;;5079168;28;20036;-75
2022/01/22 00:44:36;;;;;;;;;;;;;;;;;;5074084;28;20581;-75
2022/01/22 00:47:02;;;;;;;50.80;22.05;;;;;;;;;;5084494;28;19916;-75
2022/01/22 00:49:29;;;;;;;42.08;19.20;;;;;;;;;;5091627;28;20031;-75
2022/01/22 00:51:55;;;;;;;41.50;18.80;;;;;;;;;;5093104;28;20054;-75
2022/01/22 00:54:21;;;;;;;31.17;14.85;;;;;;;;;;5092550;28;20032;-75
2022/01/22 00:56:47;;;;;;;31.45;14.40;;;;;;;;;;5091847;28;20119;-75
2022/01/22 00:59:13;;;;;;;28.48;14.95;;;;;;;;;;5092222;28;20824;-75
2022/01/22 01:01:39;;;;;;;33.08;14.18;;;;;;;;;;5091808;28;20032;-75
2022/01/22 01:04:08;;;;;;;29.88;13.73;;;;;;;;;;5091882;28;20036;-75
2022/01/22 01:06:34;;;;;;;35.97;16.02;;;;;;;;;;5091271;28;20530;-75
2022/01/22 01:09:02;;;;;;;66.20;27.60;;;;;;;;;;5091179;28;20063;-75
2022/01/22 01:11:30;;;;;;;62.75;26.15;;;;;;;;;;5091243;28;20053;-75
2022/01/22 01:13:59;;;;;;;70.38;30.63;;;;;;;;;;5091621;28;20039;-75
2022/01/22 01:33:04;;;;;;;43.83;19.02;;;;;;;;;;5090723;28;20081;-75
2022/01/22 01:35:31;;;;;;;53.28;22.33;;;;;;;;;;5090444;28;20028;-75
2022/01/22 01:38:00;;;;;;;70.97;29.75;;;;;;;;;;5083533;28;20033;-74
2022/01/22 01:40:28;;;;;;;79.13;29.88;;;;;;;;;;5075605;28;20069;-75
2022/01/22 01:45:23;;;;;;;59.40;26.58;;;;;;;;;;5090763;28;20118;-75
2022/01/22 01:47:53;;;;;;;46.53;22.52;;;;;;;;;;5090683;28;20086;-75
2022/01/22 01:50:19;;;;;;;39.65;17.80;;;;;;;;;;5091356;28;20032;-75
2022/01/22 01:53:04;;;;;;;38.72;16.83;;;;;;;;;;5090743;28;20833;-75
2022/01/22 01:55:46;;;;;;;44.15;18.58;;;;;;;;;;5090363;28;20070;-75
2022/01/22 01:58:12;;;;;;;63.90;27.25;;;;;;;;;;5089800;28;20036;-75
2022/01/22 02:00:39;;;;;;;56.58;23.90;;;;;;;;;;5090387;28;20024;-75
2022/01/22 02:03:05;;;;;;;57.75;24.27;;;;;;;;;;5089886;28;20036;-75
2022/01/22 02:05:34;;;;;;;54.20;23.38;;;;;;;;;;5090496;28;20073;-75
2022/01/22 02:08:00;;;;;;;39.20;17.27;;;;;;;;;;5089625;28;20136;-75
2022/01/22 02:10:29;;;;;;;31.63;15.95;;;;;;;;;;5090458;28;20031;-75
2022/01/22 02:23:45;;;;;;;42.33;18.25;;;;;;;;;;5081998;28;20079;-75
2022/01/22 02:26:13;;;;;;;51.63;20.50;;;;;;;;;;5074804;28;20043;-75
2022/01/22 02:28:39;;;;;;;42.63;17.42;;;;;;;;;;5089112;28;20046;-75
2022/01/22 02:31:13;;;;;;;38.47;16.55;;;;;;;;;;5089746;28;20039;-75
2022/01/22 02:33:56;;;;;;;37.83;16.13;;;;;;;;;;5088916;28;20035;-75
2022/01/22 02:36:30;;;;;;;32.00;15.60;;;;;;;;;;5090233;28;20123;-75
2022/01/22 02:41:31;;;;;;;27.88;12.90;;;;;;;;;;5090396;28;20042;-75
2022/01/22 02:43:57;;;;;;;24.92;10.75;;;;;;;;;;5084290;28;20075;-75
2022/01/22 02:46:25;;;;;;;19.67;10.13;;;;;;;;;;5085853;28;20089;-75
2022/01/22 02:48:51;;;;;;;48.83;18.15;;;;;;;;;;5088386;28;20059;-75
2022/01/22 02:51:18;;;;;;;66.53;23.25;;;;;;;;;;5089929;28;20131;-75
2022/01/22 02:53:44;;;;;;;62.05;22.15;;;;;;;;;;5089408;28;20032;-75
2022/01/22 02:56:10;;;;;;;107.18;35.92;;;;;;;;;;5089383;28;20359;-75
2022/01/22 02:58:37;;;;;;;82.63;28.27;;;;;;;;;;5069239;28;20108;-75
2022/01/22 03:01:03;;;;;;;64.07;23.05;;;;;;;;;;5086516;28;20115;-75
2022/01/22 03:03:29;;;;;;;52.05;20.02;;;;;;;;;;5089282;28;20039;-75
2022/01/22 03:05:55;;;;;;;57.60;22.70;;;;;;;;;;5090378;28;20669;-75
2022/01/22 03:08:27;;;;;;;34.05;12.63;;;;;;;;;;5093535;28;20039;-75
2022/01/22 03:10:54;;;;;;;36.25;15.98;;;;;;;;;;5086188;28;20039;-75
2022/01/22 03:15:57;;;;;;;75.20;29.20;;;;;;;;;;5093184;28;20036;-75
2022/01/22 03:21:15;;;;;;;43.45;16.40;;;;;;;;;;5093729;28;20044;-75
2022/01/22 03:29:17;;;;;;;18.33;9.48;;;;;;;;;;5089508;28;20039;-75
2022/01/22 03:31:43;;;;;;;53.85;22.48;;;;;;;;;;5092736;28;20044;-75
2022/01/22 03:34:09;;;;;;;35.65;13.32;;;;;;;;;;5093055;28;20791;-75
2022/01/22 03:36:35;;;;;;;23.23;9.43;;;;;;;;;;5093110;28;20158;-75
2022/01/22 03:39:03;;;;;;;16.15;7.93;;;;;;;;;;5093228;28;20027;-75
2022/01/22 03:41:30;;;;;;;52.15;19.70;;;;;;;;;;5092687;28;20165;-75
2022/01/22 03:43:56;;;;;;;91.68;31.90;;;;;;;;;;5093046;28;20042;-75
2022/01/22 03:46:22;;;;;;;30.48;13.90;;;;;;;;;;5092377;28;20168;-75
2022/01/22 03:48:49;;;;;;;24.90;10.18;;;;;;;;;;5092850;28;20062;-75
2022/01/22 03:51:15;;;;;;;29.42;11.25;;;;;;;;;;5092516;28;20028;-75
2022/01/22 03:53:41;;;;;;;27.13;11.05;;;;;;;;;;5092739;28;20028;-75
2022/01/22 03:56:09;;;;;;;61.25;22.73;;;;;;;;;;5092089;28;20123;-75
2022/01/22 03:58:37;;;;;;;75.50;24.85;;;;;;;;;;5092612;28;20117;-75
2022/01/22 04:03:55;;;;;;;22.77;9.88;;;;;;;;;;5092801;28;20043;-75
2022/01/22 04:09:04;;;;;;;28.88;13.02;;;;;;;;;;5072889;28;20124;-75
2022/01/22 04:11:32;;;;;;;27.45;13.60;;;;;;;;;;5088027;28;20032;-75
2022/01/22 04:14:01;;;;;;;32.10;13.30;;;;;;;;;;5092193;28;20036;-75
2022/01/22 04:16:28;;;;;;;36.33;15.88;;;;;;;;;;5092239;28;20047;-75
2022/01/22 04:24:51;;;;;;;24.55;11.20;;;;;;;;;;5010141;28;20041;-75
2022/01/22 04:27:22;;;;;;;35.85;19.13;;;;;;;;;;5061671;28;20040;-75
2022/01/22 04:29:48;;;;;;;31.35;15.10;;;;;;;;;;5092216;28;20024;-75
2022/01/22 04:32:14;;;;;;;25.50;10.57;;;;;;;;;;5091952;28;20670;-75
2022/01/22 04:34:40;;;;;;;19.08;9.50;;;;;;;;;;5091576;28;20032;-75
2022/01/22 04:37:06;;;;;;;20.23;11.10;;;;;;;;;;5091830;28;20036;-75
2022/01/22 04:39:33;;;;;;;25.20;11.10;;;;;;;;;;5091402;28;20034;-75
2022/01/22 04:41:59;;;;;;;19.70;10.23;;;;;;;;;;5091784;28;20055;-75
2022/01/22 04:44:29;;;;;;;22.00;11.75;;;;;;;;;;5091344;28;20024;-75
2022/01/22 04:47:13;;;;;;;24.42;10.18;;;;;;;;;;5092140;28;20036;-75
2022/01/22 04:55:03;;;;;;;28.90;13.63;;;;;;;;;;5090621;28;20043;-75
2022/01/22 04:57:30;;;;;;;29.08;13.38;;;;;;;;;;5091329;28;20043;-75
2022/01/22 04:59:56;;;;;;;28.02;12.48;;;;;;;;;;5089889;28;20374;-75
2022/01/22 05:02:22;;;;;;;23.52;10.10;;;;;;;;;;5091129;28;20036;-75
2022/01/22 05:04:48;;;;;;;26.10;10.30;;;;;;;;;;5083503;28;20036;-75
2022/01/22 05:07:14;;;;;;;22.77;9.95;;;;;;;;;;5088793;28;20043;-75
2022/01/22 05:09:41;;;;;;;23.42;10.48;;;;;;;;;;5090936;28;20047;-75
2022/01/22 05:12:07;;;;;;;19.73;10.57;;;;;;;;;;5091606;28;20483;-75
2022/01/22 05:14:34;;;;;;;28.63;11.80;;;;;;;;;;5090030;28;20088;-75
2022/01/22 05:17:02;;;;;;;28.23;12.00;;;;;;;;;;5091426;28;20119;-75
2022/01/22 05:19:49;;;;;;;23.42;12.05;;;;;;;;;;5090291;28;20044;-75
2022/01/22 05:24:52;;;;;;;28.80;14.20;;;;;;;;;;5090699;28;20069;-75
2022/01/22 05:32:37;;;;;;;36.72;18.23;;;;;;;;;;5089838;28;20540;-75
2022/01/22 05:37:48;;;;;;;32.05;15.20;;;;;;;;;;5070565;28;20428;-75
2022/01/22 05:40:14;;;;;;;32.92;17.52;;;;;;;;;;5087442;28;20481;-75
2022/01/22 05:42:42;;;;;;;34.72;18.20;;;;;;;;;;5090842;28;20093;-75
2022/01/22 05:45:09;;;;;;;31.48;15.68;;;;;;;;;;5090992;28;20032;-75
2022/01/22 05:47:35;;;;;;;28.40;14.63;;;;;;;;;;5084160;28;20574;-75
2022/01/22 05:50:06;;;;;;;26.95;14.02;;;;;;;;;;5090817;28;20064;-75
2022/01/22 05:52:44;;;;;;;24.42;11.50;;;;;;;;;;5090555;28;20039;-75
2022/01/22 06:00:41;;;;;;;23.67;12.18;;;;;;;;;;5089769;28;20058;-75
2022/01/22 06:03:08;;;;;;;25.40;14.52;;;;;;;;;;5089857;28;20485;-74
2022/01/22 06:05:34;;;;;;;30.40;14.90;;;;;;;;;;5090126;28;20073;-75
2022/01/22 06:08:00;;;;;;;26.65;12.32;;;;;;;;;;5089627;28;20032;-75
2022/01/22 06:10:27;;;;;;;23.08;12.40;;;;;;;;;;5089145;28;20024;-75
2022/01/22 06:13:09;;;;;;;24.10;13.23;;;;;;;;;;5082954;28;20043;-75
2022/01/22 06:15:35;;;;;;;28.08;15.52;;;;;;;;;;5079452;28;20024;-75
2022/01/22 06:18:01;;;;;;;31.50;17.27;;;;;;;;;;5089501;28;20043;-75
2022/01/22 06:20:27;;;;;;;30.27;16.83;;;;;;;;;;5084943;28;20099;-75
2022/01/22 06:22:53;;;;;;;31.60;17.38;;;;;;;;;;5089728;28;20119;-75
2022/01/22 06:25:19;;;;;;;30.10;16.13;;;;;;;;;;5071303;28;20378;-75
2022/01/22 06:27:45;;;;;;;35.55;18.17;;;;;;;;;;5085979;28;20115;-75
2022/01/22 06:30:12;;;;;;;28.45;15.35;;;;;;;;;;5089544;28;20131;-75
2022/01/22 06:32:38;;;;;;;30.83;13.48;;;;;;;;;;5088741;28;20054;-74
2022/01/22 06:35:05;;;;;;;29.17;16.52;;;;;;;;;;5084842;28;20437;-75
2022/01/22 06:37:31;;;;;;;31.27;17.45;;;;;;;;;;5080194;28;20115;-75
2022/01/22 06:42:32;;;;;;;36.03;19.67;;;;;;;;;;5077862;28;20043;-75
2022/01/22 06:44:59;;;;;;;31.42;16.88;;;;;;;;;;5085802;28;20039;-75
2022/01/22 06:47:26;;;;;;;31.13;16.30;;;;;;;;;;5088102;28;20028;-75
2022/01/22 06:49:52;;;;;;;39.42;17.73;;;;;;;;;;5086093;28;20476;-75
2022/01/22 06:52:18;;;;;;;36.58;17.33;;;;;;;;;;5088664;28;20040;-75
2022/01/22 06:54:45;;;;;;;37.90;17.77;;;;;;;;;;5088714;28;20036;-75
2022/01/22 06:57:11;;;;;;;31.80;16.20;;;;;;;;;;5087543;28;20546;-76
2022/01/22 06:59:37;;;;;;;29.33;14.55;;;;;;;;;;5087135;28;20034;-75
2022/01/22 07:02:04;;;;;;;28.92;13.88;;;;;;;;;;5087948;28;20032;-75
2022/01/22 07:04:31;;;;;;;34.35;17.30;;;;;;;;;;5069745;28;20033;-75
2022/01/22 07:06:57;;;;;;;45.72;22.52;;;;;;;;;;5086355;28;20043;-76
2022/01/22 07:09:24;;;;;;;103.90;37.45;;;;;;;;;;5087820;28;20027;-75
2022/01/22 07:11:50;;;;;;;102.75;40.28;;;;;;;;;;5088746;28;20047;-75
2022/01/22 07:14:16;;;;;;;77.75;28.95;;;;;;;;;;5088016;28;20032;-75
2022/01/22 07:16:43;;;;;;;66.82;24.90;;;;;;;;;;5087287;28;20039;-75
2022/01/22 07:19:09;;;;;;;38.22;15.60;;;;;;;;;;5079137;28;20048;-76
2022/01/22 07:21:37;;;;;;;37.97;15.18;;;;;;;;;;5088637;28;20032;-76
2022/01/22 07:26:29;;;;;;;43.28;19.25;;;;;;;;;;5081580;28;20131;-76
2022/01/22 07:28:55;;;;;;;47.33;26.80;;;;;;;;;;5082062;28;20040;-76
2022/01/22 07:31:23;;;;;;;47.38;25.27;;;;;;;;;;5070535;28;20039;-75
2022/01/22 07:33:49;;;;;;;40.58;20.50;;;;;;;;;;5087024;28;20059;-75
2022/01/22 07:36:15;;;;;;;39.50;23.15;;;;;;;;;;5088946;28;20063;-75
2022/01/22 07:38:41;;;;;;;40.20;26.15;;;;;;;;;;5087613;28;21992;-75
2022/01/22 07:41:08;;;;;;;35.85;19.77;;;;;;;;;;5088985;28;20107;-75
2022/01/22 07:43:34;;;;;;;31.27;16.85;;;;;;;;;;5088012;28;20039;-75
2022/01/22 07:46:00;;;;;;;30.60;16.85;;;;;;;;;;5088397;28;20051;-74
2022/01/22 07:48:27;;;;;;;35.30;18.13;;;;;;;;;;5087857;28;20080;-75
2022/01/22 07:50:53;;;;;;;34.80;18.20;;;;;;;;;;5086852;28;20136;-75
2022/01/22 07:53:19;;;;;;;36.75;18.70;;;;;;;;;;5091292;28;20040;-75
2022/01/22 07:55:45;;;;;;;38.42;17.65;;;;;;;;;;5091907;28;20475;-75
2022/01/22 07:58:11;;;;;;;27.48;15.00;;;;;;;;;;5091087;28;20043;-76
2022/01/22 08:00:38;;;;;;;26.27;12.95;;;;;;;;;;5091774;28;20062;-76
2022/01/22 08:03:08;;;;;;;32.88;12.98;;;;;;;;;;5091306;28;20028;-76
2022/01/22 08:05:34;;;;;;;29.20;13.48;;;;;;;;;;5089919;28;20024;-75
2022/01/22 08:08:00;;;;;;;32.10;16.27;;;;;;;;;;5091654;28;20115;-74
2022/01/22 08:10:26;;;;;;;39.08;18.98;;;;;;;;;;5091290;28;20147;-75
2022/01/22 08:12:53;;;;;;;35.28;18.17;;;;;;;;;;5090192;28;20822;-76
2022/01/22 08:15:21;;;;;;;36.50;17.67;;;;;;;;;;5072882;28;20537;-74
2022/01/22 08:17:50;;;;;;;36.47;18.13;;;;;;;;;;5091091;28;20085;-74
2022/01/22 08:20:21;;;;;;;41.30;19.73;;;;;;;;;;5087794;28;20039;-74
2022/01/22 08:22:47;;;;;;;42.92;21.48;;;;;;;;;;5090923;28;20028;-75
2022/01/22 08:25:13;;;;;;;39.17;23.35;;;;;;;;;;5090321;28;20024;-76
2022/01/22 08:28:53;;;;;;;36.85;20.85;;;;;;;;;;5088810;28;20081;-76
2022/01/22 08:30:25;;;;;;;33.78;19.23;;;;;;;;;;5087358;28;20115;-76
2022/01/22 08:35:56;;;;;;;44.17;22.92;;;;;;;;;;5026424;28;20033;-76
2022/01/22 08:38:23;;;;;;;34.60;20.73;;;;;;;;;;5027121;28;20473;-74
2022/01/22 08:40:49;;;;;;;36.40;19.55;;;;;;;;;;5054190;28;20044;-74
2022/01/22 08:43:15;;;;;;;41.35;18.83;;;;;;;;;;5084506;28;20830;-74
2022/01/22 08:45:41;;;;;;;40.75;23.15;;;;;;;;;;5090222;28;20070;-74
2022/01/22 08:48:07;;;;;;;66.63;41.30;;;;;;;;;;5087214;28;20101;-75
2022/01/22 08:50:34;;;;;;;55.85;36.63;;;;;;;;;;5090329;28;20040;-74
2022/01/22 08:53:01;;;;;;;53.20;29.73;;;;;;;;;;5073906;28;20036;-74
2022/01/22 08:55:27;;;;;;;46.70;27.60;;;;;;;;;;5090718;28;20063;-74
2022/01/22 08:57:53;;;;;;;61.00;27.02;;;;;;;;;;5078075;28;20024;-74
2022/01/22 09:00:20;;;;;;;189.70;66.03;;;;;;;;;;5086609;28;20028;-75
2022/01/22 09:02:46;;;;;;;125.10;47.03;;;;;;;;;;5090935;28;20698;-74
2022/01/22 09:05:15;;;;;;;95.47;42.47;;;;;;;;;;5089457;28;20032;-74
2022/01/22 09:07:42;;;;;;;61.20;31.30;;;;;;;;;;5091008;28;20089;-74
2022/01/22 09:10:08;;;;;;;64.10;30.00;;;;;;;;;;5091029;28;20028;-74
2022/01/22 09:12:34;;;;;;;69.18;30.70;;;;;;;;;;5090515;28;20028;-74
2022/01/22 09:15:00;;;;;;;74.22;35.72;;;;;;;;;;5090841;28;20078;-74
2022/01/22 09:17:26;;;;;;;65.97;33.00;;;;;;;;;;5089811;28;20089;-74
2022/01/22 09:19:57;;;;;;;50.08;25.63;;;;;;;;;;5090507;28;20089;-74
2022/01/22 09:22:23;;;;;;;48.30;23.88;;;;;;;;;;5090310;28;20028;-74
2022/01/22 09:24:49;;;;;;;33.53;17.90;;;;;;;;;;5091087;28;20035;-74
2022/01/22 09:27:16;;;;;;;33.72;16.15;;;;;;;;;;5082627;28;20032;-74
2022/01/22 09:29:43;;;;;;;20.75;10.80;;;;;;;;;;5089180;28;20028;-74
2022/01/22 09:32:09;;;;;;;18.40;11.00;;;;;;;;;;5084915;28;20041;-75
2022/01/22 09:34:35;;;;;;;33.38;15.27;;;;;;;;;;5078251;28;20078;-74
2022/01/22 09:37:01;;;;;;;36.83;16.35;;;;;;;;;;5071159;28;20036;-74
2022/01/22 09:39:27;;;;;;;47.63;24.75;;;;;;;;;;5089770;28;20115;-74
2022/01/22 09:41:53;;;;;;;37.00;19.15;;;;;;;;;;5090356;28;20103;-74
2022/01/22 09:44:19;;;;;;;31.73;16.48;;;;;;;;;;5080565;28;20028;-74
2022/01/22 09:46:46;;;;;;;34.55;19.25;;;;;;;;;;5089582;28;20955;-74
2022/01/22 09:49:13;;;;;;;28.23;14.10;;;;;;;;;;5090125;28;20039;-74
2022/01/22 09:51:39;;;;;;;26.83;13.05;;;;;;;;;;5090942;28;20035;-74
2022/01/22 09:54:11;;;;;;;25.55;11.90;;;;;;;;;;5090440;28;20027;-74
2022/01/22 09:56:40;;;;;;;20.10;10.57;;;;;;;;;;5090405;28;20028;-74
2022/01/22 09:59:06;;;;;;;29.45;12.73;;;;;;;;;;5086634;28;20035;-74
2022/01/22 10:01:34;;;;;;;24.05;11.98;;;;;;;;;;5090675;28;20030;-74
2022/01/22 10:04:01;;;;;;;26.05;12.70;;;;;;;;;;5075314;28;20035;-74
2022/01/22 10:06:31;;;;;;;33.88;13.63;;;;;;;;;;5089062;28;20059;-74
2022/01/22 10:09:25;;;;;;;32.22;15.43;;;;;;;;;;5089930;28;20044;-74
2022/01/22 10:12:07;;;;;;;38.78;18.52;;;;;;;;;;5087270;28;20622;-75
2022/01/22 10:14:36;;;;;;;27.50;12.50;;;;;;;;;;5084113;28;20032;-76
2022/01/22 10:17:02;;;;;;;22.27;10.10;;;;;;;;;;5082277;28;20111;-75
2022/01/22 10:19:28;;;;;;;22.13;10.63;;;;;;;;;;5071036;28;20604;-75
2022/01/22 10:21:56;;;;;;;26.50;12.80;;;;;;;;;;5089328;28;20058;-73
2022/01/22 10:24:44;;;;;;;31.23;14.90;;;;;;;;;;5088237;28;20024;-73
2022/01/22 10:27:26;;;;;;;22.02;11.40;;;;;;;;;;5085629;28;20042;-72
2022/01/22 10:29:54;;;;;;;21.65;10.45;;;;;;;;;;5087743;28;20032;-73
2022/01/22 10:32:26;;;;;;;20.25;9.43;;;;;;;;;;5086050;28;20119;-73
2022/01/22 10:35:03;;;;;;;17.00;7.68;;;;;;;;;;5089444;28;20081;-73
2022/01/22 10:37:29;;;;;;;20.00;8.10;;;;;;;;;;5088511;28;20697;-72
2022/01/22 10:40:15;;;;;;;17.85;8.63;;;;;;;;;;5088387;28;20031;-73
2022/01/22 10:42:41;;;;;;;23.90;9.57;;;;;;;;;;5082865;28;20054;-73
2022/01/22 10:45:11;;;;;;;35.42;11.05;;;;;;;;;;5088269;28;20454;-73
2022/01/22 10:47:37;;;;;;;24.08;11.65;;;;;;;;;;5080717;28;20032;-72
2022/01/22 10:50:18;;;;;;;33.13;21.45;;;;;;;;;;5088611;28;20077;-73
2022/01/22 10:52:55;;;;;;;17.10;9.23;;;;;;;;;;5087556;28;20031;-73
2022/01/22 10:55:21;;;;;;;18.33;9.45;;;;;;;;;;5087888;28;20028;-73
2022/01/22 10:58:07;;;;;;;16.70;8.68;;;;;;;;;;5087732;28;20390;-73
2022/01/22 11:00:33;;;;;;;18.70;7.68;;;;;;;;;;5067919;28;20055;-73
2022/01/22 11:02:59;;;;;;;14.55;8.57;;;;;;;;;;5078578;28;20032;-73
2022/01/22 11:05:38;;;;;;;22.45;8.57;;;;;;;;;;5088495;28;20039;-73
2022/01/22 11:08:08;;;;;;;20.67;10.30;;;;;;;;;;5087303;28;20055;-73
2022/01/22 11:10:35;;;;;;;15.88;7.97;;;;;;;;;;5089071;28;20058;-73
2022/01/22 11:13:01;;;;;;;18.92;7.85;;;;;;;;;;5088093;28;20046;-73
2022/01/22 11:15:28;;;;;;;17.63;8.95;;;;;;;;;;5082006;28;20028;-73
2022/01/22 11:17:55;;;;;;;20.80;7.50;;;;;;;;;;5088961;28;20036;-73
2022/01/22 11:20:22;;;;;;;15.60;6.95;;;;;;;;;;5088690;28;20163;-73
2022/01/22 11:22:48;;;;;;;13.27;6.80;;;;;;;;;;5088624;28;20085;-73
2022/01/22 11:25:14;;;;;;;15.63;6.40;;;;;;;;;;5085282;28;20467;-73
2022/01/22 11:27:41;;;;;;;15.00;6.28;;;;;;;;;;5091764;28;20527;-73
2022/01/22 11:30:08;;;;;;;17.60;7.57;;;;;;;;;;5093480;28;20114;-73
2022/01/22 11:32:52;;;;;;;13.27;5.78;;;;;;;;;;5093094;28;20046;-73
2022/01/22 11:35:38;;;;;;;13.13;4.32;;;;;;;;;;5085951;28;20534;-73
2022/01/22 11:38:16;;;;;;;23.95;5.55;;;;;;;;;;5063910;28;20055;-73
2022/01/22 11:40:43;;;;;;;12.27;6.30;;;;;;;;;;5092999;28;20032;-73
2022/01/22 11:43:20;;;;;;;18.23;8.13;;;;;;;;;;5092486;28;20111;-73
2022/01/22 11:45:50;;;;;;;15.93;6.65;;;;;;;;;;5091778;28;20475;-73
2022/01/22 11:48:24;;;;;;;16.23;5.30;;;;;;;;;;5092687;28;20390;-72
2022/01/22 11:50:52;;;;;;;13.10;6.07;;;;;;;;;;5080782;28;20048;-73
2022/01/22 11:53:37;;;;;;;9.88;4.70;;;;;;;;;;5073746;28;20415;-73
2022/01/22 11:56:12;;;;;;;12.70;6.22;;;;;;;;;;5089038;28;20024;-74
2022/01/22 11:58:56;;;;;;;16.45;9.48;;;;;;;;;;5092664;28;20786;-73
2022/01/22 12:02:02;;;;;;;10.05;5.03;;;;;;;;;;5092251;28;20532;-73
2022/01/22 12:04:29;;;;;;;9.60;5.43;;;;;;;;;;5088249;28;20048;-73
2022/01/22 12:07:01;;;;;;;10.82;4.78;;;;;;;;;;5092755;28;20115;-73
2022/01/22 12:09:32;;;;;;;12.27;5.28;;;;;;;;;;5092129;28;20032;-73
2022/01/22 12:14:54;;;;;;;9.30;4.97;;;;;;;;;;5091850;28;20073;-73
2022/01/22 12:17:29;;;;;;;9.40;5.22;;;;;;;;;;5091098;28;20074;-73
2022/01/22 12:22:40;;;;;;;14.02;5.45;;;;;;;;;;5092168;28;20090;-73
2022/01/22 12:25:09;;;;;;;7.68;4.00;;;;;;;;;;5080377;28;20077;-73
2022/01/22 12:27:45;;;;;;;11.43;4.95;;;;;;;;;;5091992;28;20047;-73
2022/01/22 12:30:11;;;;;;;10.90;5.32;;;;;;;;;;5092215;28;20028;-73
2022/01/22 12:32:47;;;;;;;10.27;5.07;;;;;;;;;;5091776;28;20068;-73
2022/01/22 12:35:18;;;;;;;12.40;5.28;;;;;;;;;;5079386;28;20028;-73
2022/01/22 12:37:48;;;;;;;11.10;4.95;;;;;;;;;;5071239;28;20115;-73
2022/01/22 12:40:26;;;;;;;14.98;7.95;;;;;;;;;;5081008;28;20031;-73
2022/01/22 12:42:59;;;;;;;8.35;4.35;;;;;;;;;;5090953;28;20790;-73
2022/01/22 12:45:26;;;;;;;13.02;9.15;;;;;;;;;;5091937;28;20031;-74
2022/01/22 12:47:54;;;;;;;15.70;6.85;;;;;;;;;;5091421;28;20036;-74
2022/01/22 12:50:24;;;;;;;12.80;7.55;;;;;;;;;;5072905;28;20115;-73
2022/01/22 12:52:51;;;;;;;13.02;5.63;;;;;;;;;;5071511;28;20043;-73
2022/01/22 12:55:19;;;;;;;9.30;3.88;;;;;;;;;;5077761;28;20035;-73
2022/01/22 12:57:45;;;;;;;9.10;3.63;;;;;;;;;;5073973;28;20071;-74
2022/01/22 13:00:15;;;;;;;12.93;4.63;;;;;;;;;;5092033;28;20479;-74
2022/01/22 13:02:43;;;;;;;10.23;4.45;;;;;;;;;;5091283;28;20429;-74
2022/01/22 13:05:10;;;;;;;10.98;5.13;;;;;;;;;;5091203;28;20110;-73
2022/01/22 13:07:52;;;;;;;10.73;5.50;;;;;;;;;;5091425;28;20034;-73
2022/01/22 13:10:18;;;;;;;17.75;7.18;;;;;;;;;;5090042;28;20115;-73
2022/01/22 13:12:46;;;;;;;10.57;5.15;;;;;;;;;;5091048;28;20036;-73
2022/01/22 13:15:15;;;;;;;14.52;4.88;;;;;;;;;;5090018;28;20024;-73
2022/01/22 13:17:42;;;;;;;11.25;4.38;;;;;;;;;;5090963;28;20039;-73
2022/01/22 13:20:10;;;;;;;10.27;4.35;;;;;;;;;;5090028;28;20704;-73
2022/01/22 13:22:37;;;;;;;15.27;5.07;;;;;;;;;;5091261;28;20024;-74
2022/01/22 13:25:07;;;;;;;14.90;4.18;;;;;;;;;;5090529;28;20032;-73
2022/01/22 13:27:37;;;;;;;10.80;4.60;;;;;;;;;;5090996;28;20085;-74
2022/01/22 13:30:04;;;;;;;9.85;4.55;;;;;;;;;;5090542;28;20097;-73
2022/01/22 13:32:58;;;;;;;8.75;3.00;;;;;;;;;;5090854;28;20049;-73
2022/01/22 13:48:48;;;;;;;9.32;4.20;;;;;;;;;;5089751;28;20789;-75
2022/01/22 13:51:14;;;;;;;15.27;4.75;;;;;;;;;;5089403;28;20759;-75
2022/01/22 13:53:41;;;;;;;13.30;6.10;;;;;;;;;;5087034;28;20781;-75
2022/01/22 13:56:11;;;;;;;15.60;7.03;;;;;;;;;;5085344;28;20028;-75
2022/01/22 13:58:37;;;;;;;15.10;6.63;;;;;;;;;;5090431;28;20032;-75
2022/01/22 14:01:17;;;;;;;14.02;6.40;;;;;;;;;;5086602;28;20024;-75
2022/01/22 14:03:45;;;;;;;17.15;7.05;;;;;;;;;;5090743;28;20028;-75
2022/01/22 14:06:11;;;;;;;16.80;6.80;;;;;;;;;;5089206;28;20031;-75
2022/01/22 14:08:37;;;;;;;16.77;6.80;;;;;;;;;;5072477;28;20028;-76
2022/01/22 14:11:06;;;;;;;15.88;8.20;;;;;;;;;;5086537;28;20027;-75
2022/01/22 14:13:32;;;;;;;14.93;7.18;;;;;;;;;;5091335;28;20034;-75
2022/01/22 14:16:14;;;;;;;25.45;12.52;;;;;;;;;;5090676;28;20036;-76
2022/01/22 14:18:41;;;;;;;25.87;8.63;;;;;;;;;;5072271;28;20079;-76
2022/01/22 14:21:07;;;;;;;15.75;6.40;;;;;;;;;;5089999;28;20345;-75
2022/01/22 14:23:36;;;;;;;15.48;5.80;;;;;;;;;;5071080;28;20107;-76
2022/01/22 14:26:25;;;;;;;17.75;7.55;;;;;;;;;;5070021;28;20032;-75
2022/01/22 14:28:54;;;;;;;14.75;6.35;;;;;;;;;;5089284;28;20119;-75
2022/01/22 14:31:20;;;;;;;18.98;7.80;;;;;;;;;;5089434;28;20020;-75
2022/01/22 14:33:47;;;;;;;17.50;7.20;;;;;;;;;;5089249;28;20040;-75
2022/01/22 14:36:17;;;;;;;11.98;5.40;;;;;;;;;;5089956;28;20115;-75
2022/01/22 14:38:46;;;;;;;13.50;6.45;;;;;;;;;;5088742;28;20558;-75
2022/01/22 14:46:25;;;;;;;16.70;6.35;;;;;;;;;;5089493;28;20039;-75
2022/01/22 14:48:50;;;;;;;14.52;6.28;;;;;;;;;;5084875;28;20107;-76
2022/01/22 14:51:17;;;;;;;13.35;6.20;;;;;;;;;;5089945;28;20150;-75
2022/01/22 14:53:42;;;;;;;15.68;7.25;;;;;;;;;;5082691;28;20438;-75
2022/01/22 14:56:08;;;;;;;17.65;7.07;;;;;;;;;;5083008;28;20107;-75
2022/01/22 14:58:36;;;;;;;17.10;10.20;;;;;;;;;;5067843;28;20077;-75
2022/01/22 15:01:02;;;;;;;24.25;9.93;;;;;;;;;;5086475;28;20024;-76
2022/01/22 15:03:28;;;;;;;23.25;9.55;;;;;;;;;;5086623;28;20039;-75
2022/01/22 15:05:54;;;;;;;17.38;8.60;;;;;;;;;;5088244;28;20030;-75
2022/01/22 15:08:20;;;;;;;16.42;8.30;;;;;;;;;;5081540;28;20553;-75
2022/01/22 15:10:46;;;;;;;18.67;7.50;;;;;;;;;;5079495;28;20036;-75
2022/01/22 15:13:12;;;;;;;20.65;6.75;;;;;;;;;;5087271;28;20047;-76
2022/01/22 15:15:42;;;;;;;17.17;7.05;;;;;;;;;;5089669;28;20028;-76
2022/01/22 15:18:25;;;;;;;19.50;8.45;;;;;;;;;;5088150;28;20051;-75
2022/01/22 15:20:51;;;;;;;15.10;8.13;;;;;;;;;;5085955;28;20028;-75
2022/01/22 15:23:17;;;;;;;22.90;8.23;;;;;;;;;;5085652;28;20118;-75
2022/01/22 15:25:43;;;;;;;22.25;8.73;;;;;;;;;;5087778;28;20024;-75
2022/01/22 15:28:09;;;;;;;27.52;16.30;;;;;;;;;;5060170;28;20036;-75
2022/01/22 15:30:36;;;;;;;24.48;13.32;;;;;;;;;;5084069;28;20107;-75
2022/01/22 15:33:16;;;;;;;21.20;11.30;;;;;;;;;;5081479;28;20032;-75
2022/01/22 15:35:42;;;;;;;16.98;8.52;;;;;;;;;;5089274;28;20031;-75
2022/01/22 15:38:08;;;;;;;14.75;7.35;;;;;;;;;;5088445;28;20040;-75
2022/01/22 15:40:35;;;;;;;14.98;7.03;;;;;;;;;;5070537;28;20024;-75
2022/01/22 15:43:02;;;;;;;14.48;7.35;;;;;;;;;;5086972;28;20134;-75
2022/01/22 15:45:31;;;;;;;18.98;7.53;;;;;;;;;;5089245;28;20038;-75
2022/01/22 15:47:57;;;;;;;16.40;8.15;;;;;;;;;;5076243;28;20107;-75
2022/01/22 15:50:24;;;;;;;14.07;7.13;;;;;;;;;;5088935;28;20738;-74
2022/01/22 15:52:50;;;;;;;17.27;6.35;;;;;;;;;;5082976;28;20039;-75
2022/01/22 15:55:16;;;;;;;16.75;6.25;;;;;;;;;;5087100;28;20127;-75
2022/01/22 15:57:42;;;;;;;13.00;5.85;;;;;;;;;;5070737;28;20080;-75
2022/01/22 16:00:09;;;;;;;15.27;7.15;;;;;;;;;;5088759;28;20020;-74
2022/01/22 16:02:36;;;;;;;21.05;9.13;;;;;;;;;;5088268;28;20028;-74
2022/01/22 16:05:03;;;;;;;19.90;8.80;;;;;;;;;;5085375;28;20020;-75
2022/01/22 16:07:31;;;;;;;22.23;9.45;;;;;;;;;;5088114;28;20036;-74
2022/01/22 16:09:57;;;;;;;27.33;12.90;;;;;;;;;;5088074;28;20069;-74
2022/01/22 16:12:25;;;;;;;24.70;11.55;;;;;;;;;;5084892;28;20036;-74
2022/01/22 16:14:51;;;;;;;18.05;9.25;;;;;;;;;;5084458;28;20028;-74
2022/01/22 16:17:18;;;;;;;16.38;8.85;;;;;;;;;;5089694;28;20119;-74
2022/01/22 16:19:44;;;;;;;15.85;8.52;;;;;;;;;;5087247;28;20051;-74